createdAt,value
2023-05-06T00:00:43.026Z,100627.37
2023-05-06T00:03:45.807Z,100627.72
2023-05-06T00:06:48.943Z,100621.28
2023-05-06T00:09:51.597Z,100628.03
2023-05-06T00:12:53.894Z,100621.22
2023-05-06T00:15:56.745Z,100621.34
2023-05-06T00:18:58.920Z,100619.66
2023-05-06T00:22:01.525Z,100616.87
2023-05-06T00:25:04.004Z,100624.22
2023-05-06T00:28:06.489Z,100626.31
2023-05-06T00:31:09.668Z,100631.03
2023-05-06T00:34:12.334Z,100631.62
2023-05-06T00:37:14.750Z,100627.78
2023-05-06T00:40:17.305Z,100629.41
2023-05-06T00:43:19.632Z,100622.50
2023-05-06T00:46:22.194Z,100634.25
2023-05-06T00:49:24.820Z,100635.94
2023-05-06T00:52:27.287Z,100635.22
2023-05-06T00:55:30.582Z,100625.66
2023-05-06T00:58:34.059Z,100627.47
2023-05-06T01:01:37.587Z,100628.94
2023-05-06T01:04:41.513Z,100628.47
2023-05-06T01:08:05.708Z,100628.69
2023-05-06T01:11:28.349Z,100626.16
2023-05-06T01:14:46.564Z,100623.16
2023-05-06T01:17:52.763Z,100628.47
2023-05-06T01:20:56.596Z,100629.91
2023-05-06T01:23:59.220Z,100619.66
2023-05-06T01:27:01.470Z,100623.41
2023-05-06T01:30:04.490Z,100621.47
2023-05-06T01:33:19.080Z,100617.97
2023-05-06T01:36:41.040Z,100618.34
2023-05-06T01:39:45.519Z,100612.41
2023-05-06T01:42:51.468Z,100617.25
2023-05-06T01:45:55.917Z,100604.59
2023-05-06T01:49:03.988Z,100611.38
2023-05-06T01:52:06.370Z,100605.31
2023-05-06T01:55:09.467Z,100612.69
2023-05-06T01:58:11.915Z,100609.31
2023-05-06T02:01:15.696Z,100611.25
2023-05-06T02:04:18.265Z,100613.91
2023-05-06T02:07:21.033Z,100605.44
2023-05-06T02:10:23.557Z,100607.63
2023-05-06T02:13:26.060Z,100612.09
2023-05-06T02:16:29.380Z,100618.25
2023-05-06T02:19:31.680Z,100615.25
2023-05-06T02:22:34.287Z,100611.13
2023-05-06T02:25:36.820Z,100611.38
2023-05-06T02:28:39.088Z,100602.78
2023-05-06T02:31:41.584Z,100609.56
2023-05-06T02:34:43.866Z,100609.19
2023-05-06T02:37:46.353Z,100616.31
2023-05-06T02:40:48.674Z,100616.19
2023-05-06T02:43:51.200Z,100607.97
2023-05-06T02:46:53.374Z,100611.97
2023-05-06T02:49:55.824Z,100610.03
2023-05-06T02:52:57.997Z,100612.06
2023-05-06T02:56:00.742Z,100617.53
2023-05-06T02:59:03.885Z,100617.53
2023-05-06T03:02:06.406Z,100622.47
2023-05-06T03:05:09.969Z,100626.09
2023-05-06T03:08:12.913Z,100618.97
2023-05-06T03:11:16.021Z,100629.59
2023-05-06T03:14:18.475Z,100616.69
2023-05-06T03:17:20.802Z,100615.22
2023-05-06T03:20:24.296Z,100627.41
2023-05-06T03:23:26.737Z,100625.72
2023-05-06T03:26:29.612Z,100628.66
2023-05-06T03:29:32.699Z,100617.63
2023-05-06T03:32:37.550Z,100620.78
2023-05-06T03:35:42.435Z,100609.28
2023-05-06T03:38:45.130Z,100606.28
2023-05-06T03:41:48.152Z,100608.69
2023-05-06T03:44:52.309Z,100612.81
2023-05-06T03:47:54.866Z,100613.66
2023-05-06T03:50:58.122Z,100613.41
2023-05-06T03:54:01.454Z,100615.72
2023-05-06T03:57:04.168Z,100617.91
2023-05-06T04:00:07.821Z,100617.28
2023-05-06T04:03:18.222Z,100611.38
2023-05-06T04:06:21.321Z,100619.66
2023-05-06T04:09:23.532Z,100630.78
2023-05-06T04:12:27.451Z,100635.00
2023-05-06T04:15:32.827Z,100638.38
2023-05-06T04:18:36.089Z,100636.66
2023-05-06T04:21:38.989Z,100630.84
2023-05-06T04:24:41.881Z,100627.47
2023-05-06T04:27:44.545Z,100626.44
2023-05-06T04:30:47.329Z,100631.38
2023-05-06T04:33:49.870Z,100641.44
2023-05-06T04:36:54.317Z,100644.84
2023-05-06T04:39:57.921Z,100648.16
2023-05-06T04:43:01.099Z,100642.53
2023-05-06T04:46:03.684Z,100638.72
2023-05-06T04:49:07.532Z,100636.66
2023-05-06T04:52:10.256Z,100642.97
2023-05-06T04:55:13.122Z,100636.72
2023-05-06T04:58:16.601Z,100645.06
2023-05-06T05:01:20.046Z,100651.94
2023-05-06T05:04:22.357Z,100650.53
2023-05-06T05:07:24.821Z,100659.56
2023-05-06T05:10:27.476Z,100673.06
2023-05-06T05:13:30.873Z,100668.47
2023-05-06T05:16:34.237Z,100661.78
2023-05-06T05:19:37.496Z,100665.75
2023-05-06T05:22:39.934Z,100663.66
2023-05-06T05:25:42.697Z,100664.78
2023-05-06T05:28:45.527Z,100660.03
2023-05-06T05:31:48.433Z,100668.75
2023-05-06T05:34:51.130Z,100664.00
2023-05-06T05:37:53.835Z,100659.12
2023-05-06T05:40:56.655Z,100661.81
2023-05-06T05:43:59.722Z,100669.94
2023-05-06T05:47:02.575Z,100662.38
2023-05-06T05:50:06.901Z,100652.97
2023-05-06T05:53:09.466Z,100660.53
2023-05-06T05:56:12.731Z,100661.59
2023-05-06T05:59:15.802Z,100654.13
2023-05-06T06:02:18.876Z,100659.72
2023-05-06T06:05:22.093Z,100657.78
2023-05-06T06:08:24.261Z,100664.25
2023-05-06T06:11:27.642Z,100658.91
2023-05-06T06:14:29.950Z,100651.34
2023-05-06T06:17:32.740Z,100647.97
2023-05-06T06:20:35.704Z,100651.03
2023-05-06T06:23:38.167Z,100653.19
2023-05-06T06:26:41.058Z,100646.22
2023-05-06T06:29:43.670Z,100664.06
2023-05-06T06:32:51.123Z,100656.78
2023-05-06T06:35:53.791Z,100647.50
2023-05-06T06:38:55.925Z,100656.59
2023-05-06T06:41:58.616Z,100652.44
2023-05-06T06:45:00.859Z,100654.91
2023-05-06T06:48:03.565Z,100643.87
2023-05-06T06:51:05.780Z,100644.59
2023-05-06T06:54:08.277Z,100640.94
2023-05-06T06:57:10.457Z,100645.94
2023-05-06T07:00:13.343Z,100639.94
2023-05-06T07:03:19.212Z,100641.69
2023-05-06T07:06:21.697Z,100637.31
2023-05-06T07:09:23.912Z,100642.53
2023-05-06T07:12:26.820Z,100643.31
2023-05-06T07:15:28.984Z,100635.47
2023-05-06T07:18:31.452Z,100639.50
2023-05-06T07:21:33.684Z,100641.56
2023-05-06T07:24:36.211Z,100648.75
2023-05-06T07:27:38.607Z,100648.41
2023-05-06T07:30:41.471Z,100642.00
2023-05-06T07:33:43.664Z,100639.38
2023-05-06T07:36:46.198Z,100638.13
2023-05-06T07:39:48.455Z,100641.50
2023-05-06T07:42:51.063Z,100641.28
2023-05-06T07:45:58.862Z,100638.72
2023-05-06T07:49:01.875Z,100638.69
2023-05-06T07:52:04.680Z,100635.06
2023-05-06T07:55:09.973Z,100635.78
2023-05-06T07:58:12.542Z,100641.34
2023-05-06T08:01:16.185Z,100644.19
2023-05-06T08:04:18.796Z,100638.50
2023-05-06T08:07:21.220Z,100645.38
2023-05-06T08:10:24.095Z,100643.44
2023-05-06T08:13:27.745Z,100642.69
2023-05-06T08:16:30.317Z,100648.19
2023-05-06T08:19:32.631Z,100639.78
2023-05-06T08:22:36.830Z,100644.91
2023-05-06T08:25:39.090Z,100649.09
2023-05-06T08:28:41.687Z,100643.97
2023-05-06T08:31:44.084Z,100638.66
2023-05-06T08:34:46.709Z,100637.63
2023-05-06T08:37:48.908Z,100641.16
2023-05-06T08:40:53.285Z,100647.06
2023-05-06T08:43:58.428Z,100641.25
2023-05-06T08:47:01.128Z,100641.53
2023-05-06T08:50:03.361Z,100639.44
2023-05-06T08:53:06.121Z,100631.31
2023-05-06T08:56:11.563Z,100630.72
2023-05-06T08:59:14.353Z,100627.47
2023-05-06T09:02:16.577Z,100628.66
2023-05-06T09:05:19.173Z,100623.69
2023-05-06T09:08:21.393Z,100632.63
2023-05-06T09:11:26.433Z,100620.41
2023-05-06T09:14:28.646Z,100629.69
2023-05-06T09:17:32.667Z,100623.94
2023-05-06T09:20:35.792Z,100619.13
2023-05-06T09:23:38.323Z,100616.16
2023-05-06T09:26:42.060Z,100614.16
2023-05-06T09:30:01.009Z,100607.47
2023-05-06T09:33:06.370Z,100612.28
2023-05-06T09:36:13.251Z,100600.84
2023-05-06T09:39:15.451Z,100604.72
2023-05-06T09:42:17.929Z,100604.38
2023-05-06T09:45:21.760Z,100597.88
2023-05-06T09:48:29.234Z,100594.25
2023-05-06T09:51:32.489Z,100597.44
2023-05-06T09:54:35.800Z,100591.56
2023-05-06T09:57:38.125Z,100586.75
2023-05-06T10:00:41.816Z,100576.69
2023-05-06T10:03:45.563Z,100578.16
2023-05-06T10:06:49.747Z,100589.75
2023-05-06T10:09:54.270Z,100573.53
2023-05-06T10:12:56.640Z,100572.22
2023-05-06T10:16:01.132Z,100564.50
2023-05-06T10:19:04.952Z,100565.63
2023-05-06T10:22:14.234Z,100558.50
2023-05-06T10:25:23.254Z,100556.84
2023-05-06T10:28:31.567Z,100557.53
2023-05-06T10:31:35.190Z,100543.28
2023-05-06T10:34:47.320Z,100541.41
2023-05-06T10:37:52.341Z,100540.34
2023-05-06T10:40:55.598Z,100539.16
2023-05-06T10:43:57.758Z,100528.16
2023-05-06T10:47:00.769Z,100538.16
2023-05-06T10:50:26.178Z,100524.25
2023-05-06T10:54:04.085Z,100521.22
2023-05-06T10:57:10.587Z,100519.88
2023-05-06T11:00:13.845Z,100521.53
2023-05-06T11:03:18.672Z,100511.31
2023-05-06T11:06:35.607Z,100513.84
2023-05-06T11:10:08.009Z,100508.25
2023-05-06T11:13:28.259Z,100508.91
2023-05-06T11:16:48.020Z,100505.94
2023-05-06T11:20:10.716Z,100513.53
2023-05-06T11:23:13.258Z,100515.06
2023-05-06T11:26:16.664Z,100507.06
2023-05-06T11:29:19.647Z,100509.69
2023-05-06T11:32:24.963Z,100499.59
2023-05-06T11:35:35.125Z,100496.66
2023-05-06T11:38:46.576Z,100512.06
2023-05-06T11:41:48.769Z,100504.97
2023-05-06T11:44:54.995Z,100504.81
2023-05-06T11:47:57.144Z,100509.03
2023-05-06T11:50:59.684Z,100507.06
2023-05-06T11:54:07.453Z,100514.38
2023-05-06T11:57:10.235Z,100509.31
2023-05-06T12:00:13.311Z,100509.97
2023-05-06T12:03:15.638Z,100503.69
2023-05-06T12:06:19.098Z,100508.03
2023-05-06T12:09:22.556Z,100509.53
2023-05-06T12:12:24.947Z,100500.75
2023-05-06T12:15:27.355Z,100504.53
2023-05-06T12:18:30.615Z,100507.00
2023-05-06T12:21:37.065Z,100510.50
2023-05-06T12:24:39.581Z,100506.16
2023-05-06T12:27:41.890Z,100505.63
2023-05-06T12:30:44.764Z,100496.75
2023-05-06T12:33:49.772Z,100494.37
2023-05-06T12:36:52.249Z,100496.28
2023-05-06T12:39:56.998Z,100489.88
2023-05-06T12:43:01.148Z,100486.84
2023-05-06T12:46:05.216Z,100486.00
2023-05-06T12:49:07.767Z,100479.56
2023-05-06T12:52:10.673Z,100486.16
2023-05-06T12:55:13.099Z,100486.91
2023-05-06T12:58:19.193Z,100483.66
2023-05-06T13:01:22.166Z,100481.47
2023-05-06T13:04:24.621Z,100490.53
2023-05-06T13:07:27.106Z,100487.06
2023-05-06T13:10:29.256Z,100483.84
2023-05-06T13:13:31.744Z,100482.03
2023-05-06T13:16:35.218Z,100482.53
2023-05-06T13:19:39.040Z,100475.84
2023-05-06T13:22:53.656Z,100483.59
2023-05-06T13:26:04.293Z,100472.91
2023-05-06T13:29:07.168Z,100478.50
2023-05-06T13:32:09.854Z,100477.81
2023-05-06T13:35:12.313Z,100484.06
2023-05-06T13:38:14.979Z,100474.56
2023-05-06T13:41:17.212Z,100471.31
2023-05-06T13:44:21.055Z,100476.34
2023-05-06T13:47:23.578Z,100474.37
2023-05-06T13:50:26.116Z,100476.84
2023-05-06T13:53:28.359Z,100490.22
2023-05-06T13:56:30.927Z,100482.31
2023-05-06T13:59:33.115Z,100482.56
2023-05-06T14:02:36.142Z,100483.53
2023-05-06T14:05:39.274Z,100491.47
2023-05-06T14:08:41.628Z,100488.28
2023-05-06T14:11:44.151Z,100487.59
2023-05-06T14:14:46.324Z,100486.19
2023-05-06T14:17:48.891Z,100487.28
2023-05-06T14:20:51.206Z,100488.00
2023-05-06T14:23:53.618Z,100482.38
2023-05-06T14:26:55.988Z,100484.09
2023-05-06T14:29:58.547Z,100490.22
2023-05-06T14:33:00.950Z,100488.91
2023-05-06T14:36:03.668Z,100472.06
2023-05-06T14:39:06.031Z,100477.06
2023-05-06T14:42:09.895Z,100472.53
2023-05-06T14:45:13.370Z,100477.31
2023-05-06T14:48:16.347Z,100473.84
2023-05-06T14:51:18.562Z,100476.88
2023-05-06T14:54:21.153Z,100472.50
2023-05-06T14:57:24.009Z,100474.50
2023-05-06T15:00:26.495Z,100469.47
2023-05-06T15:03:28.914Z,100471.09
2023-05-06T15:06:31.959Z,100462.00
2023-05-06T15:09:34.255Z,100459.44
2023-05-06T15:12:37.369Z,100458.09
2023-05-06T15:15:39.721Z,100457.87
2023-05-06T15:18:42.773Z,100462.94
2023-05-06T15:21:44.974Z,100459.19
2023-05-06T15:24:47.587Z,100460.91
2023-05-06T15:27:50.041Z,100446.84
2023-05-06T15:30:52.590Z,100454.91
2023-05-06T15:33:54.876Z,100445.22
2023-05-06T15:37:00.983Z,100438.16
2023-05-06T15:40:05.574Z,100443.41
2023-05-06T15:43:08.605Z,100440.03
2023-05-06T15:46:12.453Z,100447.28
2023-05-06T15:49:45.709Z,100451.28
2023-05-06T15:52:37.918Z,100441.78
2023-05-06T15:55:45.218Z,100439.25
2023-05-06T15:58:53.117Z,100446.13
2023-05-06T16:05:02.083Z,100444.09
2023-05-06T16:08:04.760Z,100447.41
2023-05-06T16:11:09.021Z,100439.56
2023-05-06T16:14:12.869Z,100439.16
2023-05-06T16:17:15.955Z,100432.16
2023-05-06T16:20:19.280Z,100430.97
2023-05-06T16:23:23.197Z,100430.75
2023-05-06T16:26:25.909Z,100431.72
2023-05-06T16:29:31.110Z,100440.31
2023-05-06T16:32:33.592Z,100448.88
2023-05-06T16:35:39.305Z,100443.25
2023-05-06T16:38:41.592Z,100441.84
2023-05-06T16:41:44.454Z,100451.66
2023-05-06T16:44:46.689Z,100458.72
2023-05-06T16:47:49.623Z,100451.31
2023-05-06T16:50:51.925Z,100454.69
2023-05-06T16:53:54.866Z,100450.63
2023-05-06T16:56:59.089Z,100454.13
2023-05-06T17:00:02.132Z,100463.69
2023-05-06T17:03:04.653Z,100455.13
2023-05-06T17:06:08.076Z,100451.06
2023-05-06T17:09:11.142Z,100449.41
2023-05-06T17:12:14.449Z,100450.59
2023-05-06T17:15:16.896Z,100447.22
2023-05-06T17:18:20.357Z,100447.56
2023-05-06T17:21:23.636Z,100447.37
2023-05-06T17:24:26.468Z,100438.16
2023-05-06T17:27:28.591Z,100434.09
2023-05-06T17:30:31.171Z,100436.28
2023-05-06T17:33:33.434Z,100429.59
2023-05-06T17:36:36.015Z,100434.13
2023-05-06T17:39:38.472Z,100434.44
2023-05-06T17:42:41.188Z,100436.28
2023-05-06T17:45:43.549Z,100433.41
2023-05-06T17:48:47.520Z,100430.37
2023-05-06T17:51:51.149Z,100428.66
2023-05-06T17:55:06.291Z,100429.12
2023-05-06T17:58:16.679Z,100431.31
2023-05-06T18:01:20.189Z,100433.31
2023-05-06T18:04:23.948Z,100441.34
2023-05-06T18:07:26.927Z,100439.84
2023-05-06T18:10:30.706Z,100442.69
2023-05-06T18:13:36.307Z,100442.31
2023-05-06T18:16:41.170Z,100435.28
2023-05-06T18:19:46.582Z,100439.78
2023-05-06T18:22:49.826Z,100452.03
2023-05-06T18:25:52.823Z,100453.38
2023-05-06T18:28:57.331Z,100457.87
2023-05-06T18:32:04.311Z,100461.88
2023-05-06T18:35:09.428Z,100470.81
2023-05-06T18:38:13.520Z,100465.66
2023-05-06T18:41:16.991Z,100462.59
2023-05-06T18:44:19.738Z,100456.09
2023-05-06T18:47:22.771Z,100457.03
2023-05-06T18:50:25.565Z,100452.31
2023-05-06T18:53:28.809Z,100458.00
2023-05-06T18:56:31.934Z,100459.47
2023-05-06T18:59:35.962Z,100456.59
2023-05-06T19:02:38.725Z,100460.72
2023-05-06T19:05:43.143Z,100459.69
2023-05-06T19:08:45.687Z,100471.72
2023-05-06T19:11:48.573Z,100479.75
2023-05-06T19:14:52.003Z,100482.91
2023-05-06T19:17:56.333Z,100472.13
2023-05-06T19:21:00.211Z,100482.34
2023-05-06T19:24:06.033Z,100487.69
2023-05-06T19:27:08.677Z,100486.00
2023-05-06T19:30:12.890Z,100506.28
2023-05-06T19:33:15.571Z,100498.44
2023-05-06T19:36:18.416Z,100495.94
2023-05-06T19:39:21.704Z,100498.56
2023-05-06T19:42:25.613Z,100492.22
2023-05-06T19:45:28.322Z,100501.94
2023-05-06T19:48:34.950Z,100500.59
2023-05-06T19:51:39.648Z,100518.66
2023-05-06T19:54:45.169Z,100526.78
2023-05-06T19:57:50.255Z,100534.19
2023-05-06T20:00:54.212Z,100535.03
2023-05-06T20:04:02.084Z,100522.06
2023-05-06T20:07:06.569Z,100530.22
2023-05-06T20:10:10.726Z,100534.72
2023-05-06T20:13:13.575Z,100529.91
2023-05-06T20:16:17.627Z,100522.31
2023-05-06T20:19:40.362Z,100521.63
2023-05-06T20:22:47.358Z,100525.50
2023-05-06T20:25:50.228Z,100517.72
2023-05-06T20:28:56.468Z,100508.91
2023-05-06T20:32:00.510Z,100508.53
2023-05-06T20:35:06.368Z,100495.69
2023-05-06T20:38:10.951Z,100488.94
2023-05-06T20:41:14.865Z,100486.19
2023-05-06T20:44:19.116Z,100485.03
2023-05-06T20:47:26.521Z,100490.00
2023-05-06T20:50:30.866Z,100474.16
2023-05-06T20:53:34.452Z,100471.94
2023-05-06T20:56:38.359Z,100465.97
2023-05-06T20:59:43.498Z,100472.25
2023-05-06T21:02:47.542Z,100471.72
2023-05-06T21:05:55.849Z,100465.34
2023-05-06T21:09:00.690Z,100463.97
2023-05-06T21:12:04.093Z,100460.91
2023-05-06T21:15:08.388Z,100463.09
2023-05-06T21:18:11.227Z,100465.34
2023-05-06T21:21:13.795Z,100465.81
2023-05-06T21:24:19.015Z,100479.38
2023-05-06T21:27:21.720Z,100487.41
2023-05-06T21:30:25.556Z,100483.84
2023-05-06T21:33:27.884Z,100487.16
2023-05-06T21:36:32.249Z,100491.37
2023-05-06T21:39:35.037Z,100482.19
2023-05-06T21:42:38.047Z,100490.75
2023-05-06T21:45:41.869Z,100489.00
2023-05-06T21:48:46.374Z,100487.78
2023-05-06T21:51:48.660Z,100495.72
2023-05-06T21:54:55.899Z,100500.66
2023-05-06T21:58:00.267Z,100503.75
2023-05-06T22:01:06.254Z,100509.25
2023-05-06T22:04:13.392Z,100511.97
2023-05-06T22:07:16.661Z,100518.47
2023-05-06T22:10:20.469Z,100535.16
2023-05-06T22:13:33.885Z,100524.91
2023-05-06T22:16:41.625Z,100526.97
2023-05-06T22:19:47.909Z,100523.00
2023-05-06T22:22:52.435Z,100517.03
2023-05-06T22:25:54.983Z,100512.47
2023-05-06T22:28:57.724Z,100513.81
2023-05-06T22:32:01.597Z,100511.56
2023-05-06T22:35:09.034Z,100508.25
2023-05-06T22:38:15.900Z,100498.06
2023-05-06T22:41:24.089Z,100502.19
2023-05-06T22:44:28.680Z,100495.97
2023-05-06T22:47:35.180Z,100498.56
2023-05-06T22:50:42.608Z,100497.87
2023-05-06T22:53:54.437Z,100495.94
2023-05-06T22:56:56.650Z,100490.88
2023-05-06T22:59:59.378Z,100500.06
2023-05-06T23:03:01.642Z,100496.41
2023-05-06T23:06:06.022Z,100498.69
2023-05-06T23:09:08.348Z,100500.50
2023-05-06T23:12:10.907Z,100496.00
2023-05-06T23:15:13.622Z,100501.50
2023-05-06T23:18:16.212Z,100494.87
2023-05-06T23:21:18.731Z,100500.38
2023-05-06T23:24:21.291Z,100498.25
2023-05-06T23:27:23.526Z,100490.81
2023-05-06T23:30:26.086Z,100488.44
2023-05-06T23:33:28.298Z,100490.41
2023-05-06T23:36:30.797Z,100492.38
2023-05-06T23:39:33.249Z,100495.88
2023-05-06T23:42:36.049Z,100491.94
2023-05-06T23:45:38.316Z,100488.72
2023-05-06T23:48:40.874Z,100490.56
2023-05-06T23:51:43.035Z,100483.53
2023-05-06T23:54:45.560Z,100479.44
2023-05-06T23:57:47.845Z,100479.59
